Time;durP1;ratioP1;P1;durP2;ratioP2;P2;SDS_P1;SDS_P2;PMS_P1;PMS_P2;Temp;Humidity;BMP_temperature;BMP_pressure;BME280_temperature;BME280_humidity;BME280_pressure;Samples;Min_cycle;Max_cycle;Signal;HPM_P1;HPM_P2
2023/10/12 00:01:57;;;;;;;15.02;10.50;;;;;;;;;;5034426;28;20334;-60
2023/10/12 00:04:27;;;;;;;13.32;11.95;;;;;;;;;;5034638;28;20029;-59
2023/10/12 00:06:52;;;;;;;12.07;6.15;;;;;;;;;;5034639;28;20079;-59
2023/10/12 00:09:19;;;;;;;11.20;5.20;;;;;;;;;;5034355;28;20021;-58
2023/10/12 00:11:54;;;;;;;10.68;7.03;;;;;;;;;;5034138;28;20032;-60
2023/10/12 00:14:22;;;;;;;10.95;8.38;;;;;;;;;;5034278;28;20017;-60
2023/10/12 00:16:48;;;;;;;13.57;8.15;;;;;;;;;;5034516;28;20452;-59
2023/10/12 00:19:14;;;;;;;16.65;15.00;;;;;;;;;;5033896;28;20030;-57
2023/10/12 00:21:43;;;;;;;11.25;8.38;;;;;;;;;;5032729;28;20033;-60
2023/10/12 00:24:11;;;;;;;10.27;6.22;;;;;;;;;;5034197;28;20052;-59
2023/10/12 00:26:37;;;;;;;17.50;8.15;;;;;;;;;;5034139;28;20025;-60
2023/10/12 00:29:06;;;;;;;;;;;;;;;;;;5034626;28;20017;-60
2023/10/12 00:31:31;;;;;;;12.48;7.15;;;;;;;;;;5034382;28;20368;-59
2023/10/12 00:33:57;;;;;;;13.50;6.57;;;;;;;;;;5034431;28;20025;-60
2023/10/12 00:36:24;;;;;;;13.98;7.63;;;;;;;;;;5034405;28;20020;-59
2023/10/12 00:38:51;;;;;;;12.63;5.55;;;;;;;;;;5035049;28;20017;-60
2023/10/12 00:41:17;;;;;;;12.73;8.45;;;;;;;;;;5034734;28;20405;-59
2023/10/12 00:43:50;;;;;;;12.77;7.68;;;;;;;;;;5034327;28;20020;-60
2023/10/12 00:49:39;;;;;;;13.05;8.75;;;;;;;;;;5035690;28;20021;-63
2023/10/12 00:51:49;;;;;;;10.02;6.88;;;;;;;;;;5034281;28;20048;-60
2023/10/12 00:54:15;;;;;;;9.88;6.00;;;;;;;;;;5034325;28;20017;-61
2023/10/12 00:56:43;;;;;;;11.50;5.22;;;;;;;;;;5033706;28;20045;-59
2023/10/12 00:59:11;;;;;;;13.85;8.20;;;;;;;;;;5033598;28;20093;-59
2023/10/12 01:01:37;;;;;;;9.30;5.53;;;;;;;;;;5033811;28;20064;-60
2023/10/12 01:04:02;;;;;;;11.23;5.27;;;;;;;;;;5032830;28;20458;-59
2023/10/12 01:08:52;;;;;;;11.60;5.95;;;;;;;;;;5034036;28;20029;-60
2023/10/12 01:11:20;;;;;;;11.20;6.20;;;;;;;;;;5033167;28;20029;-58
2023/10/12 01:13:54;;;;;;;11.23;5.10;;;;;;;;;;5033562;28;20029;-61
2023/10/12 01:16:23;;;;;;;13.63;8.80;;;;;;;;;;5033717;28;20010;-57
2023/10/12 01:18:52;;;;;;;10.10;5.35;;;;;;;;;;5033203;28;20542;-59
2023/10/12 01:21:20;;;;;;;12.02;6.68;;;;;;;;;;5032835;28;20036;-60
2023/10/12 01:23:50;;;;;;;11.93;8.57;;;;;;;;;;5033473;28;20013;-60
2023/10/12 01:26:16;;;;;;;11.38;5.95;;;;;;;;;;5033200;28;20025;-59
2023/10/12 01:28:45;;;;;;;11.57;7.30;;;;;;;;;;5032900;28;20018;-59
2023/10/12 01:31:10;;;;;;;11.40;5.85;;;;;;;;;;5032503;28;20025;-60
2023/10/12 01:33:38;;;;;;;10.80;6.40;;;;;;;;;;5032999;28;20028;-60
2023/10/12 01:36:03;;;;;;;12.38;8.65;;;;;;;;;;5032879;28;20393;-59
2023/10/12 01:38:36;;;;;;;14.85;8.80;;;;;;;;;;5032598;28;20022;-61
2023/10/12 01:41:02;;;;;;;12.13;6.15;;;;;;;;;;5032133;28;20446;-60
2023/10/12 01:43:29;;;;;;;18.95;17.05;;;;;;;;;;5032994;28;20100;-60
2023/10/12 01:46:01;;;;;;;11.15;5.22;;;;;;;;;;5032757;28;20071;-60
2023/10/12 01:48:33;;;;;;;16.25;10.35;;;;;;;;;;5032803;28;20014;-58
2023/10/12 01:51:02;;;;;;;10.23;7.72;;;;;;;;;;5032341;28;20370;-58
2023/10/12 01:53:31;;;;;;;10.00;5.75;;;;;;;;;;5032367;28;20026;-58
2023/10/12 01:55:58;;;;;;;9.70;5.25;;;;;;;;;;5032562;28;20499;-60
2023/10/12 01:58:32;;;;;;;8.43;4.72;;;;;;;;;;5032454;28;20017;-59
2023/10/12 02:01:07;;;;;;;12.77;6.32;;;;;;;;;;5031602;28;20392;-59
2023/10/12 02:03:37;;;;;;;55.95;51.03;;;;;;;;;;5032557;28;20029;-59
2023/10/12 02:06:04;;;;;;;10.32;7.30;;;;;;;;;;5032601;28;20035;-60
2023/10/12 02:08:35;;;;;;;30.45;27.80;;;;;;;;;;5032259;28;20025;-60
2023/10/12 02:13:35;;;;;;;15.27;11.07;;;;;;;;;;5032495;28;20104;-59
2023/10/12 02:16:04;;;;;;;11.68;6.60;;;;;;;;;;5029491;28;20029;-59
2023/10/12 02:18:34;;;;;;;21.23;17.27;;;;;;;;;;5031472;28;20075;-58
2023/10/12 02:23:36;;;;;;;17.95;16.25;;;;;;;;;;5031988;28;20406;-59
2023/10/12 02:26:07;;;;;;;10.52;6.85;;;;;;;;;;5032241;28;20025;-59
2023/10/12 02:28:37;;;;;;;14.10;10.77;;;;;;;;;;5031935;28;20037;-59
2023/10/12 02:31:03;;;;;;;14.00;10.40;;;;;;;;;;5031869;28;20033;-59
2023/10/12 02:33:35;;;;;;;16.85;13.60;;;;;;;;;;5032032;28;20436;-59
2023/10/12 02:36:01;;;;;;;15.90;14.20;;;;;;;;;;5031912;28;20089;-59
2023/10/12 02:38:28;;;;;;;21.58;19.55;;;;;;;;;;5030093;28;20025;-59
2023/10/12 02:40:57;;;;;;;9.32;5.57;;;;;;;;;;5031324;28;20018;-59
2023/10/12 02:43:27;;;;;;;10.57;7.70;;;;;;;;;;5031851;28;20018;-60
2023/10/12 02:45:53;;;;;;;15.32;13.73;;;;;;;;;;5031762;28;20013;-59
2023/10/12 02:48:23;;;;;;;32.65;30.10;;;;;;;;;;5031284;28;20067;-60
2023/10/12 02:50:57;;;;;;;27.85;25.63;;;;;;;;;;5030809;28;20029;-59
2023/10/12 02:53:28;;;;;;;21.33;19.27;;;;;;;;;;5031779;28;20017;-60
2023/10/12 02:55:58;;;;;;;11.05;6.80;;;;;;;;;;5031369;28;20044;-58
2023/10/12 02:58:23;;;;;;;9.00;7.43;;;;;;;;;;5031247;28;20018;-57
2023/10/12 03:00:54;;;;;;;20.30;18.50;;;;;;;;;;5031052;28;20393;-59
2023/10/12 03:03:26;;;;;;;21.55;19.35;;;;;;;;;;5031679;28;20051;-58
2023/10/12 03:05:53;;;;;;;31.42;29.30;;;;;;;;;;5031684;28;20025;-59
2023/10/12 03:08:20;;;;;;;13.10;11.88;;;;;;;;;;5031155;28;20477;-57
2023/10/12 03:11:10;;;;;;;27.17;25.08;;;;;;;;;;5030633;28;20417;-60
2023/10/12 03:13:36;;;;;;;86.95;79.45;;;;;;;;;;5031484;28;20024;-58
2023/10/12 03:16:08;;;;;;;;;;;;;;;;;;5031686;28;20014;-58
2023/10/12 03:18:34;;;;;;;21.65;19.95;;;;;;;;;;5030497;28;19915;-59
2023/10/12 03:21:11;;;;;;;9.70;6.82;;;;;;;;;;5030607;28;20029;-58
2023/10/12 03:23:38;;;;;;;13.48;10.95;;;;;;;;;;5031197;28;20034;-58
2023/10/12 03:26:05;;;;;;;22.40;20.80;;;;;;;;;;5030188;28;20013;-60
2023/10/12 03:28:30;;;;;;;18.80;17.17;;;;;;;;;;5030449;28;20568;-60
2023/10/12 03:31:11;;;;;;;65.90;60.78;;;;;;;;;;5030566;28;20124;-58
2023/10/12 03:33:36;;;;;;;13.10;9.18;;;;;;;;;;5031151;28;20068;-61
2023/10/12 03:38:58;;;;;;;26.15;23.92;;;;;;;;;;5030807;28;20196;-60
2023/10/12 03:43:54;;;;;;;30.67;28.65;;;;;;;;;;5030965;28;20025;-59
2023/10/12 03:46:27;;;;;;;9.60;5.28;;;;;;;;;;5030590;28;20064;-59
2023/10/12 03:49:24;;;;;;;30.95;28.23;;;;;;;;;;5030448;28;20029;-60
2023/10/12 03:51:57;;;;;;;47.42;43.40;;;;;;;;;;5029510;28;20034;-60
2023/10/12 03:54:34;;;;;;;13.88;10.48;;;;;;;;;;5030929;28;20040;-60
2023/10/12 03:59:44;;;;;;;22.83;20.95;;;;;;;;;;5030489;28;20032;-58
2023/10/12 04:02:14;;;;;;;36.60;33.80;;;;;;;;;;5030841;28;20029;-60
2023/10/12 04:04:51;;;;;;;34.60;32.35;;;;;;;;;;5030500;28;20100;-60
2023/10/12 04:07:17;;;;;;;35.67;33.33;;;;;;;;;;5030481;28;20084;-60
2023/10/12 04:09:42;;;;;;;31.98;29.33;;;;;;;;;;5029947;28;20072;-60
2023/10/12 04:14:53;;;;;;;12.52;8.82;;;;;;;;;;5030755;28;20108;-60
2023/10/12 04:25:21;;;;;;;12.95;11.73;;;;;;;;;;5030752;28;20108;-60
2023/10/12 04:27:52;;;;;;;21.88;20.05;;;;;;;;;;5030852;28;20113;-58
2023/10/12 04:30:22;;;;;;;61.33;57.50;;;;;;;;;;5029966;28;20022;-60
2023/10/12 04:35:22;;;;;;;43.05;40.00;;;;;;;;;;5030645;28;20018;-59
2023/10/12 04:37:47;;;;;;;21.02;19.20;;;;;;;;;;5031900;28;20087;-59
2023/10/12 04:41:22;;;;;;;30.08;27.40;;;;;;;;;;5033441;28;20479;-60
2023/10/12 04:43:06;;;;;;;13.00;11.45;;;;;;;;;;5030695;28;20122;-60
2023/10/12 04:45:55;;;;;;;35.60;32.70;;;;;;;;;;5034318;28;20112;-59
2023/10/12 04:48:18;;;;;;;24.30;22.05;;;;;;;;;;5033928;28;20129;-60
2023/10/12 04:50:52;;;;;;;35.03;32.55;;;;;;;;;;5033449;28;20095;-60
2023/10/12 04:53:18;;;;;;;20.85;19.25;;;;;;;;;;5033765;28;20470;-59
2023/10/12 04:55:47;;;;;;;16.30;14.68;;;;;;;;;;5033790;28;20100;-60
2023/10/12 04:58:22;;;;;;;28.75;26.63;;;;;;;;;;5033444;28;20022;-59
2023/10/12 05:00:55;;;;;;;29.65;27.38;;;;;;;;;;5033249;28;20095;-58
2023/10/12 05:03:25;;;;;;;30.52;28.25;;;;;;;;;;5033498;28;20581;-58
2023/10/12 05:05:56;;;;;;;34.63;31.23;;;;;;;;;;5033535;28;20075;-59
2023/10/12 05:08:21;;;;;;;13.98;9.93;;;;;;;;;;5033388;28;20021;-60
2023/10/12 05:10:46;;;;;;;17.00;15.43;;;;;;;;;;5032782;28;20029;-59
2023/10/12 05:13:12;;;;;;;10.03;6.50;;;;;;;;;;5033466;28;20444;-59
2023/10/12 05:15:51;;;;;;;22.33;20.60;;;;;;;;;;5033367;28;20404;-59
2023/10/12 05:18:17;;;;;;;35.58;32.80;;;;;;;;;;5033161;28;20481;-59
2023/10/12 05:20:43;;;;;;;39.17;36.53;;;;;;;;;;5032610;28;20070;-59
2023/10/12 05:23:09;;;;;;;25.27;23.17;;;;;;;;;;5032997;28;20095;-59
2023/10/12 05:28:27;;;;;;;13.23;11.93;;;;;;;;;;5033585;28;20021;-58
2023/10/12 05:30:55;;;;;;;27.73;25.42;;;;;;;;;;5032360;28;20022;-59
2023/10/12 05:36:11;;;;;;;42.58;39.90;;;;;;;;;;5033179;28;20029;-60
2023/10/12 05:38:48;;;;;;;18.70;16.80;;;;;;;;;;5032495;28;20048;-59
2023/10/12 05:41:13;;;;;;;14.70;13.35;;;;;;;;;;5032346;28;20037;-59
2023/10/12 05:43:40;;;;;;;27.07;25.00;;;;;;;;;;5032664;28;20025;-60
2023/10/12 05:46:13;;;;;;;26.30;24.17;;;;;;;;;;5032982;28;20022;-60
2023/10/12 05:48:45;;;;;;;45.20;42.17;;;;;;;;;;5032251;28;20076;-57
2023/10/12 05:51:11;;;;;;;;;;;;;;;;;;5032422;28;20041;-60
2023/10/12 05:53:37;;;;;;;35.95;33.45;;;;;;;;;;5032645;28;19909;-59
2023/10/12 05:56:04;;;;;;;22.02;20.27;;;;;;;;;;5032715;28;20477;-60
2023/10/12 05:58:29;;;;;;;14.32;12.60;;;;;;;;;;5032883;28;20021;-58
2023/10/12 06:00:54;;;;;;;16.63;15.13;;;;;;;;;;5031724;28;20378;-58
2023/10/12 06:03:21;;;;;;;24.07;22.17;;;;;;;;;;5032580;28;20021;-59
2023/10/12 06:05:46;;;;;;;20.90;19.05;;;;;;;;;;5032247;28;20013;-58
2023/10/12 06:08:18;;;;;;;40.13;37.50;;;;;;;;;;5032454;28;20518;-58
2023/10/12 06:10:44;;;;;;;29.38;27.42;;;;;;;;;;5031700;28;20041;-56
2023/10/12 06:13:15;;;;;;;68.70;64.72;;;;;;;;;;5032496;28;20909;-61
2023/10/12 06:15:41;;;;;;;18.88;17.13;;;;;;;;;;5032448;28;20025;-58
2023/10/12 06:18:24;;;;;;;38.10;35.33;;;;;;;;;;5032216;28;20025;-58
2023/10/12 06:20:58;;;;;;;14.32;10.13;;;;;;;;;;5031440;28;20106;-60
2023/10/12 06:23:23;;;;;;;59.17;55.70;;;;;;;;;;5032865;28;20053;-58
2023/10/12 06:25:48;;;;;;;49.67;46.42;;;;;;;;;;5032396;28;20060;-59
2023/10/12 06:28:17;;;;;;;53.15;49.33;;;;;;;;;;5032518;28;20032;-59
2023/10/12 06:30:45;;;;;;;33.92;31.63;;;;;;;;;;5032266;28;20039;-57
2023/10/12 06:33:15;;;;;;;108.03;98.32;;;;;;;;;;5032191;28;20083;-58
2023/10/12 06:36:01;;;;;;;19.70;17.67;;;;;;;;;;5032113;28;20083;-61
2023/10/12 06:41:27;;;;;;;59.45;55.65;;;;;;;;;;5031444;28;20030;-60
2023/10/12 06:46:15;;;;;;;24.75;22.55;;;;;;;;;;5031867;28;20254;-59
2023/10/12 06:48:44;;;;;;;23.85;21.48;;;;;;;;;;5032142;28;20020;-58
2023/10/12 06:51:15;;;;;;;22.30;20.25;;;;;;;;;;5031826;28;20362;-59
2023/10/12 06:53:51;;;;;;;45.58;42.33;;;;;;;;;;5032447;28;20079;-60
2023/10/12 06:59:14;;;;;;;21.95;20.05;;;;;;;;;;5032101;28;20026;-59
2023/10/12 07:04:15;;;;;;;149.07;134.32;;;;;;;;;;5032152;28;20040;-58
2023/10/12 07:06:57;;;;;;;27.25;25.17;;;;;;;;;;5031720;28;20048;-59
2023/10/12 07:09:42;;;;;;;206.45;186.98;;;;;;;;;;5032217;28;20014;-58
2023/10/12 07:12:08;;;;;;;29.00;26.70;;;;;;;;;;5031368;28;20033;-60
2023/10/12 07:14:38;;;;;;;31.42;28.67;;;;;;;;;;5031282;28;20470;-60
2023/10/12 07:17:04;;;;;;;15.68;14.27;;;;;;;;;;5031056;28;20067;-59
2023/10/12 07:19:29;;;;;;;22.98;20.90;;;;;;;;;;5030236;28;20517;-58
2023/10/12 07:21:55;;;;;;;79.17;73.90;;;;;;;;;;5031032;28;20036;-61
2023/10/12 07:24:23;;;;;;;32.15;29.67;;;;;;;;;;5031207;28;20096;-59
2023/10/12 07:26:48;;;;;;;19.75;18.05;;;;;;;;;;5031065;28;20473;-58
2023/10/12 07:29:19;;;;;;;19.25;17.48;;;;;;;;;;5030825;28;20028;-60
2023/10/12 07:31:48;;;;;;;15.27;13.77;;;;;;;;;;5030568;28;20021;-58
2023/10/12 07:34:18;;;;;;;20.85;19.10;;;;;;;;;;5030734;28;20469;-60
2023/10/12 07:39:22;;;;;;;72.83;66.37;;;;;;;;;;5030960;28;20017;-60
2023/10/12 07:42:00;;;;;;;39.38;36.88;;;;;;;;;;5030763;28;20453;-60
2023/10/12 07:44:27;;;;;;;;;;;;;;;;;;5031079;28;20041;-58
2023/10/12 07:46:56;;;;;;;34.83;32.20;;;;;;;;;;5029457;28;19972;-60
2023/10/12 07:49:27;;;;;;;68.68;63.72;;;;;;;;;;5030734;28;20396;-60
2023/10/12 07:52:09;;;;;;;38.88;35.42;;;;;;;;;;5030549;28;20374;-58
2023/10/12 07:57:36;;;;;;;23.20;21.38;;;;;;;;;;5007560;28;20087;-59
2023/10/12 08:00:29;;;;;;;42.10;38.85;;;;;;;;;;5030127;28;20488;-58
2023/10/12 08:05:33;;;;;;;29.87;27.63;;;;;;;;;;5031243;28;20025;-59
2023/10/12 08:15:56;;;;;;;47.55;44.42;;;;;;;;;;5034461;28;20029;-60
2023/10/12 08:23:50;;;;;;;33.95;31.60;;;;;;;;;;5034493;28;20132;-61
2023/10/12 08:26:47;;;;;;;39.83;36.92;;;;;;;;;;5033370;28;20010;-60
2023/10/12 08:29:17;;;;;;;44.90;41.75;;;;;;;;;;5034226;28;20045;-60
2023/10/12 08:31:45;;;;;;;49.45;46.20;;;;;;;;;;5034275;28;20021;-57
2023/10/12 08:34:31;;;;;;;46.78;43.58;;;;;;;;;;5034291;28;20071;-58
2023/10/12 08:39:37;;;;;;;38.97;36.15;;;;;;;;;;5033769;28;20060;-61
2023/10/12 08:42:29;;;;;;;87.25;81.90;;;;;;;;;;5033845;28;20057;-59
2023/10/12 08:44:53;;;;;;;79.45;74.70;;;;;;;;;;5033868;28;20021;-58
2023/10/12 08:50:05;;;;;;;97.15;91.40;;;;;;;;;;5033628;28;20045;-58
2023/10/12 08:52:33;;;;;;;34.05;31.48;;;;;;;;;;5033672;28;20133;-59
2023/10/12 08:55:03;;;;;;;49.33;46.30;;;;;;;;;;5033745;28;20028;-61
2023/10/12 08:57:38;;;;;;;29.10;26.77;;;;;;;;;;5033876;28;20477;-60
2023/10/12 09:03:00;;;;;;;56.28;52.60;;;;;;;;;;5033654;28;20124;-60
2023/10/12 09:05:25;;;;;;;51.60;48.28;;;;;;;;;;5033482;28;20021;-59
2023/10/12 09:08:08;;;;;;;128.35;121.05;;;;;;;;;;5032340;28;20129;-59
2023/10/12 09:13:24;;;;;;;40.42;37.72;;;;;;;;;;5033619;28;20037;-58
2023/10/12 09:15:56;;;;;;;52.30;48.92;;;;;;;;;;5033466;28;20097;-60
2023/10/12 09:18:33;;;;;;;28.27;26.13;;;;;;;;;;5033524;28;20028;-60
2023/10/12 09:29:07;;;;;;;73.68;68.97;;;;;;;;;;5033358;28;20481;-60
2023/10/12 09:33:55;;;;;;;56.47;53.15;;;;;;;;;;5032830;28;20013;-59
2023/10/12 09:36:20;;;;;;;29.92;27.63;;;;;;;;;;5033260;28;20028;-59
2023/10/12 09:38:46;;;;;;;85.32;80.13;;;;;;;;;;5032850;28;20477;-58
2023/10/12 09:41:16;;;;;;;54.97;51.10;;;;;;;;;;5032715;28;20080;-58
2023/10/12 09:43:44;;;;;;;45.67;42.25;;;;;;;;;;5033270;28;20188;-59
2023/10/12 09:46:13;;;;;;;126.88;119.60;;;;;;;;;;5033941;28;20392;-61
2023/10/12 09:48:39;;;;;;;59.38;55.53;;;;;;;;;;5033100;28;20028;-60
2023/10/12 09:51:15;;;;;;;91.25;86.03;;;;;;;;;;5032215;28;20560;-61
2023/10/12 09:53:42;;;;;;;65.18;61.10;;;;;;;;;;5031372;28;20030;-60
2023/10/12 09:56:12;;;;;;;82.78;77.85;;;;;;;;;;5032716;28;20091;-60
2023/10/12 09:58:50;;;;;;;27.13;24.88;;;;;;;;;;5032781;28;20026;-60
2023/10/12 10:01:15;;;;;;;;;;;;;;;;;;5032446;28;20389;-60
2023/10/12 10:03:50;;;;;;;29.50;27.25;;;;;;;;;;5032423;28;19904;-59
2023/10/12 10:06:20;;;;;;;17.02;15.43;;;;;;;;;;5032605;28;20018;-59
2023/10/12 10:08:55;;;;;;;153.50;139.73;;;;;;;;;;5032594;28;20022;-58
2023/10/12 10:11:26;;;;;;;29.40;26.92;;;;;;;;;;5032623;28;20040;-60
2023/10/12 10:13:53;;;;;;;47.95;44.88;;;;;;;;;;5032400;28;20572;-58
2023/10/12 10:16:18;;;;;;;43.47;40.78;;;;;;;;;;5032464;28;20013;-58
2023/10/12 10:18:45;;;;;;;51.78;48.33;;;;;;;;;;5032014;28;20032;-58
2023/10/12 10:21:11;;;;;;;37.17;34.65;;;;;;;;;;5031610;28;20037;-58
2023/10/12 10:23:37;;;;;;;;;;;;;;;;;;5032843;28;20397;-60
2023/10/12 10:26:30;;;;;;;39.35;36.70;;;;;;;;;;5032356;28;19951;-59
2023/10/12 10:28:58;;;;;;;60.95;57.60;;;;;;;;;;5031975;28;20014;-58
2023/10/12 10:31:27;;;;;;;23.02;21.15;;;;;;;;;;5031859;28;20036;-59
2023/10/12 10:33:55;;;;;;;96.40;90.20;;;;;;;;;;5032378;28;20096;-59
2023/10/12 10:36:24;;;;;;;28.08;25.92;;;;;;;;;;5032090;28;20017;-60
2023/10/12 10:41:38;;;;;;;39.55;36.92;;;;;;;;;;5031465;28;20030;-58
2023/10/12 10:44:05;;;;;;;89.55;84.50;;;;;;;;;;5031610;28;20466;-59
2023/10/12 10:46:31;;;;;;;33.35;31.20;;;;;;;;;;5031627;28;20049;-59
2023/10/12 10:48:56;;;;;;;121.60;114.75;;;;;;;;;;5031531;28;20040;-60
2023/10/12 10:51:32;;;;;;;42.05;39.40;;;;;;;;;;5031227;28;20037;-59
2023/10/12 10:53:57;;;;;;;102.85;96.75;;;;;;;;;;5031478;28;20101;-60
2023/10/12 10:56:35;;;;;;;78.90;74.20;;;;;;;;;;5031515;28;20079;-62
2023/10/12 10:59:00;;;;;;;91.72;86.75;;;;;;;;;;5031193;28;20022;-59
2023/10/12 11:01:26;;;;;;;50.00;46.67;;;;;;;;;;5031230;28;20100;-59
2023/10/12 11:03:52;;;;;;;110.45;103.57;;;;;;;;;;5031424;28;20105;-58
2023/10/12 11:06:23;;;;;;;67.93;63.88;;;;;;;;;;5030013;28;20104;-59
2023/10/12 11:08:53;;;;;;;102.35;95.70;;;;;;;;;;5032291;28;20045;-59
2023/10/12 11:11:26;;;;;;;44.97;41.60;;;;;;;;;;5031577;28;20388;-59
2023/10/12 11:13:52;;;;;;;75.05;70.68;;;;;;;;;;5031939;28;20440;-59
2023/10/12 11:16:21;;;;;;;122.90;115.35;;;;;;;;;;5031247;28;20040;-60
2023/10/12 11:18:47;;;;;;;82.32;77.53;;;;;;;;;;5031627;28;20022;-60
2023/10/12 11:21:13;;;;;;;74.45;68.15;;;;;;;;;;5031075;28;20048;-60
2023/10/12 11:23:39;;;;;;;68.70;64.80;;;;;;;;;;5031386;28;20401;-60
2023/10/12 11:26:04;;;;;;;92.95;87.63;;;;;;;;;;5031199;28;20162;-60
2023/10/12 11:28:29;;;;;;;96.07;89.88;;;;;;;;;;5031336;28;20025;-60
2023/10/12 11:31:07;;;;;;;156.45;146.35;;;;;;;;;;5030379;28;20022;-60
2023/10/12 11:33:32;;;;;;;82.78;77.38;;;;;;;;;;5030835;28;20428;-60
2023/10/12 11:36:03;;;;;;;99.95;93.57;;;;;;;;;;5031062;28;20013;-60
2023/10/12 11:38:28;;;;;;;80.57;75.32;;;;;;;;;;5030964;28;20025;-60
2023/10/12 11:40:55;;;;;;;135.87;127.30;;;;;;;;;;5030581;28;20075;-59
2023/10/12 11:43:28;;;;;;;49.92;46.58;;;;;;;;;;5030949;28;20097;-59
2023/10/12 11:46:01;;;;;;;95.55;89.75;;;;;;;;;;5030768;28;20014;-60
2023/10/12 11:48:26;;;;;;;67.50;63.05;;;;;;;;;;5030395;28;20025;-58
2023/10/12 11:50:52;;;;;;;154.88;143.60;;;;;;;;;;5030317;28;20037;-59
2023/10/12 11:53:17;;;;;;;70.57;66.60;;;;;;;;;;5030839;28;20018;-59
2023/10/12 11:55:43;;;;;;;98.53;92.07;;;;;;;;;;5030821;28;20021;-60
2023/10/12 11:58:08;;;;;;;68.20;64.35;;;;;;;;;;5030365;28;20018;-58
2023/10/12 12:00:36;;;;;;;83.50;77.70;;;;;;;;;;5030159;28;20013;-60
2023/10/12 12:03:03;;;;;;;151.23;141.00;;;;;;;;;;5030705;28;20100;-59
2023/10/12 12:05:33;;;;;;;123.85;116.63;;;;;;;;;;5030573;28;20014;-60
2023/10/12 12:07:59;;;;;;;89.75;83.63;;;;;;;;;;5030385;28;20037;-61
2023/10/12 12:10:38;;;;;;;76.55;71.38;;;;;;;;;;5030246;28;20465;-60
2023/10/12 12:13:04;;;;;;;70.07;65.43;;;;;;;;;;5030382;28;20047;-60
2023/10/12 12:15:29;;;;;;;136.88;127.88;;;;;;;;;;5030794;28;20025;-59
2023/10/12 12:17:54;;;;;;;118.07;110.47;;;;;;;;;;5030736;28;20393;-59
2023/10/12 12:20:23;;;;;;;97.60;90.90;;;;;;;;;;5029937;28;20035;-60
2023/10/12 12:22:48;;;;;;;177.77;166.60;;;;;;;;;;5030579;28;20095;-58
2023/10/12 12:25:18;;;;;;;123.20;115.43;;;;;;;;;;5030448;28;20474;-60
2023/10/12 12:27:48;;;;;;;99.45;92.95;;;;;;;;;;5030636;28;20420;-59
2023/10/12 12:30:23;;;;;;;129.32;120.45;;;;;;;;;;5030247;28;20013;-64
2023/10/12 12:32:49;;;;;;;51.83;48.63;;;;;;;;;;5030707;28;20021;-60
2023/10/12 12:35:15;;;;;;;70.22;65.80;;;;;;;;;;5030793;28;20018;-60
2023/10/12 12:37:40;;;;;;;100.13;93.47;;;;;;;;;;5031104;28;20028;-60
2023/10/12 12:40:27;;;;;;;71.55;66.90;;;;;;;;;;5029885;28;20017;-59
2023/10/12 12:42:52;;;;;;;134.23;125.80;;;;;;;;;;5030630;28;20088;-60
2023/10/12 12:45:18;;;;;;;220.03;205.53;;;;;;;;;;5030423;28;20026;-60
2023/10/12 12:47:43;;;;;;;118.10;110.13;;;;;;;;;;5029124;28;20117;-58
2023/10/12 12:50:08;;;;;;;109.13;102.35;;;;;;;;;;5029772;28;20029;-59
2023/10/12 12:52:36;;;;;;;87.75;82.20;;;;;;;;;;5029782;28;20504;-59
2023/10/12 12:55:09;;;;;;;69.20;64.72;;;;;;;;;;5029895;28;20029;-60
2023/10/12 12:57:35;;;;;;;55.38;51.45;;;;;;;;;;5030264;28;20482;-58
2023/10/12 13:00:06;;;;;;;124.43;116.38;;;;;;;;;;5031906;28;20029;-59
2023/10/12 13:02:31;;;;;;;110.45;103.72;;;;;;;;;;5033568;28;20029;-59
2023/10/12 13:04:57;;;;;;;156.80;147.07;;;;;;;;;;5033639;28;20021;-58
2023/10/12 13:07:22;;;;;;;106.00;98.65;;;;;;;;;;5033712;28;20021;-59
2023/10/12 13:09:48;;;;;;;195.18;181.15;;;;;;;;;;5033041;28;20067;-58
2023/10/12 13:12:13;;;;;;;124.20;115.30;;;;;;;;;;5033160;28;20107;-58
2023/10/12 13:14:42;;;;;;;141.90;132.17;;;;;;;;;;5033408;28;20040;-58
2023/10/12 13:17:08;;;;;;;77.50;72.50;;;;;;;;;;5033297;28;20033;-59
2023/10/12 13:19:34;;;;;;;101.97;95.35;;;;;;;;;;5032483;28;20438;-59
2023/10/12 13:21:59;;;;;;;158.50;148.50;;;;;;;;;;5033214;28;20111;-59
2023/10/12 13:24:24;;;;;;;109.30;102.17;;;;;;;;;;5033085;28;20539;-60
2023/10/12 13:26:49;;;;;;;74.03;69.37;;;;;;;;;;5036013;28;20056;-58
2023/10/12 13:29:14;;;;;;;120.70;112.78;;;;;;;;;;5031700;28;20060;-58
2023/10/12 13:31:40;;;;;;;155.40;144.87;;;;;;;;;;5032774;28;20044;-60
2023/10/12 13:34:05;;;;;;;154.85;144.70;;;;;;;;;;5033105;28;20393;-60
2023/10/12 13:36:31;;;;;;;133.73;123.93;;;;;;;;;;5032994;28;20010;-59
2023/10/12 13:38:56;;;;;;;158.30;147.52;;;;;;;;;;5032773;28;20025;-60
2023/10/12 13:41:22;;;;;;;158.10;147.67;;;;;;;;;;5032782;28;20040;-58
2023/10/12 13:43:48;;;;;;;152.93;143.17;;;;;;;;;;5032925;28;20018;-58
2023/10/12 13:46:15;;;;;;;146.48;137.00;;;;;;;;;;5032935;28;20014;-58
2023/10/12 13:48:40;;;;;;;91.30;85.60;;;;;;;;;;5032776;28;20032;-58
2023/10/12 13:51:23;;;;;;;110.55;103.55;;;;;;;;;;5032054;28;20025;-58
2023/10/12 13:53:51;;;;;;;151.10;141.05;;;;;;;;;;5032803;28;20014;-59
2023/10/12 13:56:16;;;;;;;185.07;172.68;;;;;;;;;;5032710;28;20108;-60
2023/10/12 13:58:44;;;;;;;208.60;194.43;;;;;;;;;;5032701;28;20504;-60
2023/10/12 14:01:15;;;;;;;193.82;180.93;;;;;;;;;;5031811;28;20056;-60
2023/10/12 14:03:44;;;;;;;148.68;139.27;;;;;;;;;;5032154;28;20029;-59
2023/10/12 14:06:10;;;;;;;151.10;141.50;;;;;;;;;;5032759;28;20040;-61
2023/10/12 14:08:35;;;;;;;162.67;152.07;;;;;;;;;;5032521;28;20022;-58
2023/10/12 14:11:06;;;;;;;180.07;167.95;;;;;;;;;;5031508;28;20013;-60
2023/10/12 14:13:32;;;;;;;202.15;188.48;;;;;;;;;;5032298;28;20032;-60
2023/10/12 14:15:57;;;;;;;162.27;151.45;;;;;;;;;;5032291;28;20484;-58
2023/10/12 14:18:22;;;;;;;187.38;174.95;;;;;;;;;;5032273;28;20410;-58
2023/10/12 14:20:49;;;;;;;103.60;97.03;;;;;;;;;;5031439;28;20460;-58
2023/10/12 14:23:15;;;;;;;203.13;189.90;;;;;;;;;;5032120;28;20041;-59
2023/10/12 14:25:47;;;;;;;201.05;187.93;;;;;;;;;;5032312;28;20025;-60
2023/10/12 14:28:16;;;;;;;136.32;127.78;;;;;;;;;;5031863;28;20021;-59
2023/10/12 14:30:41;;;;;;;146.55;137.38;;;;;;;;;;5031206;28;20386;-58
2023/10/12 14:33:07;;;;;;;173.98;162.00;;;;;;;;;;5031694;28;20083;-60
2023/10/12 14:35:37;;;;;;;203.88;190.57;;;;;;;;;;5031448;28;20030;-61
2023/10/12 14:38:06;;;;;;;94.75;88.38;;;;;;;;;;5031872;28;20196;-60
2023/10/12 14:40:32;;;;;;;132.13;123.78;;;;;;;;;;5031233;28;20028;-60
2023/10/12 14:42:58;;;;;;;212.35;197.70;;;;;;;;;;5031738;28;20026;-58
2023/10/12 14:45:24;;;;;;;224.27;209.95;;;;;;;;;;5031793;28;20021;-59
2023/10/12 14:47:50;;;;;;;240.68;224.57;;;;;;;;;;5031649;28;20052;-60
2023/10/12 14:50:17;;;;;;;195.88;183.43;;;;;;;;;;5031100;28;20045;-60
2023/10/12 14:52:43;;;;;;;177.82;166.60;;;;;;;;;;5031542;28;20021;-59
2023/10/12 14:55:11;;;;;;;222.17;207.70;;;;;;;;;;5031526;28;20108;-61
2023/10/12 14:57:38;;;;;;;124.78;116.85;;;;;;;;;;5031527;28;20420;-58
2023/10/12 15:00:08;;;;;;;91.50;85.63;;;;;;;;;;5029561;28;20087;-60
2023/10/12 15:02:34;;;;;;;270.38;252.48;;;;;;;;;;5031509;28;20049;-60
2023/10/12 15:04:59;;;;;;;233.43;218.45;;;;;;;;;;5031593;28;20013;-59
2023/10/12 15:07:25;;;;;;;257.07;238.53;;;;;;;;;;5031415;28;20099;-59
2023/10/12 15:09:50;;;;;;;269.17;250.57;;;;;;;;;;5030549;28;20504;-60
2023/10/12 15:12:15;;;;;;;144.23;134.93;;;;;;;;;;5031337;28;20160;-58
2023/10/12 15:14:41;;;;;;;145.20;135.87;;;;;;;;;;5031375;28;20388;-58
2023/10/12 15:17:06;;;;;;;160.93;150.43;;;;;;;;;;5031295;28;20656;-59
2023/10/12 15:19:32;;;;;;;147.90;138.13;;;;;;;;;;5031368;28;20029;-59
2023/10/12 15:21:57;;;;;;;110.28;103.47;;;;;;;;;;5029454;28;20041;-60
2023/10/12 15:24:23;;;;;;;144.57;135.63;;;;;;;;;;5032513;28;20104;-59
2023/10/12 15:26:48;;;;;;;140.75;131.43;;;;;;;;;;5031588;28;20465;-59
2023/10/12 15:29:14;;;;;;;195.83;183.17;;;;;;;;;;5031544;28;20096;-60
2023/10/12 15:31:39;;;;;;;189.82;177.63;;;;;;;;;;5029795;28;20067;-59
2023/10/12 15:34:04;;;;;;;258.20;240.13;;;;;;;;;;5031349;28;20017;-59
2023/10/12 15:36:31;;;;;;;246.47;230.87;;;;;;;;;;5031415;28;20025;-59
2023/10/12 15:38:56;;;;;;;261.42;244.27;;;;;;;;;;5031577;28;20052;-59
2023/10/12 15:41:21;;;;;;;203.97;190.33;;;;;;;;;;5030137;28;20061;-59
2023/10/12 15:43:47;;;;;;;136.77;128.07;;;;;;;;;;5030785;28;20056;-59
2023/10/12 15:46:12;;;;;;;236.80;220.93;;;;;;;;;;5030718;28;20096;-59
2023/10/12 15:48:39;;;;;;;153.17;143.67;;;;;;;;;;5029891;28;20048;-59
2023/10/12 15:51:13;;;;;;;152.27;143.05;;;;;;;;;;5030529;28;20036;-59
2023/10/12 15:53:38;;;;;;;131.35;123.03;;;;;;;;;;5030695;28;20028;-59
2023/10/12 15:56:06;;;;;;;180.77;169.43;;;;;;;;;;5030720;28;20021;-59
2023/10/12 15:58:33;;;;;;;225.98;211.63;;;;;;;;;;5030707;28;20021;-59